createdAt,value
2023-02-15T00:01:20.526Z,165.55
2023-02-15T00:03:49.957Z,167.05
2023-02-15T00:06:18.472Z,166.88
2023-02-15T00:08:47.472Z,196.10
2023-02-15T00:11:18.163Z,242.45
2023-02-15T00:13:46.922Z,218.15
2023-02-15T00:16:15.256Z,295.17
2023-02-15T00:18:43.842Z,184.63
2023-02-15T00:21:12.226Z,161.90
2023-02-15T00:23:40.702Z,179.85
2023-02-15T00:26:11.825Z,207.95
2023-02-15T00:28:42.007Z,156.32
2023-02-15T00:31:12.321Z,171.70
2023-02-15T00:33:41.321Z,157.77
2023-02-15T00:36:11.287Z,153.68
2023-02-15T00:38:41.211Z,160.27
2023-02-15T00:41:10.732Z,133.95
2023-02-15T00:43:40.120Z,172.23
2023-02-15T00:46:09.225Z,141.38
2023-02-15T00:48:37.910Z,136.77
2023-02-15T00:51:06.291Z,166.23
2023-02-15T00:53:35.166Z,179.10
2023-02-15T00:56:03.817Z,241.55
2023-02-15T00:58:32.886Z,176.63
2023-02-15T01:01:07.190Z,213.63
2023-02-15T01:03:36.185Z,150.07
2023-02-15T01:06:05.663Z,156.55
2023-02-15T01:08:35.054Z,216.57
2023-02-15T01:11:09.294Z,200.05
2023-02-15T01:13:40.332Z,162.98
2023-02-15T01:16:09.034Z,128.15
2023-02-15T01:18:37.884Z,149.00
2023-02-15T01:21:15.038Z,111.07
2023-02-15T01:23:46.425Z,143.50
2023-02-15T01:26:15.303Z,174.43
2023-02-15T01:28:46.139Z,141.90
2023-02-15T01:31:20.949Z,170.07
2023-02-15T01:33:50.112Z,162.70
2023-02-15T01:36:18.607Z,227.68
2023-02-15T01:38:47.775Z,155.73
2023-02-15T01:41:27.221Z,145.82
2023-02-15T01:43:59.742Z,105.07
2023-02-15T01:49:20.924Z,100.72
2023-02-15T01:51:52.329Z,100.28
2023-02-15T01:57:04.528Z,98.90
2023-02-15T01:59:36.506Z,97.40
2023-02-15T02:02:09.083Z,109.68
2023-02-15T02:04:50.084Z,98.72
2023-02-15T02:07:27.770Z,114.03
2023-02-15T02:09:56.548Z,107.03
2023-02-15T02:12:26.702Z,102.20
2023-02-15T02:14:56.085Z,104.80
2023-02-15T02:17:27.472Z,113.03
2023-02-15T02:20:05.572Z,109.32
2023-02-15T02:23:12.262Z,114.03
2023-02-15T02:26:09.759Z,119.47
2023-02-15T02:29:08.783Z,108.57
2023-02-15T02:32:04.481Z,120.05
2023-02-15T02:34:56.807Z,109.97
2023-02-15T02:38:04.148Z,97.20
2023-02-15T02:40:56.840Z,91.05
2023-02-15T02:44:11.177Z,110.75
2023-02-15T02:46:53.655Z,101.28
2023-02-15T02:49:34.244Z,113.07
2023-02-15T02:52:04.699Z,106.95
2023-02-15T02:54:37.179Z,104.35
2023-02-15T02:57:10.321Z,101.13
2023-02-15T02:59:45.346Z,107.57
2023-02-15T03:02:30.197Z,108.82
2023-02-15T03:05:08.049Z,115.97
2023-02-15T03:07:37.922Z,106.50
2023-02-15T03:10:09.573Z,110.25
2023-02-15T03:12:41.067Z,103.95
2023-02-15T03:15:19.013Z,99.82
2023-02-15T03:17:53.172Z,109.18
2023-02-15T03:20:27.249Z,109.60
2023-02-15T03:23:01.030Z,110.45
2023-02-15T03:25:35.898Z,111.65
2023-02-15T03:28:12.360Z,114.28
2023-02-15T03:30:48.410Z,129.00
2023-02-15T03:33:18.677Z,121.85
2023-02-15T03:35:57.998Z,134.70
2023-02-15T03:38:43.203Z,134.77
2023-02-15T03:41:14.793Z,141.00
2023-02-15T03:43:46.459Z,134.63
2023-02-15T03:49:10.934Z,117.80
2023-02-15T03:51:43.771Z,123.80
2023-02-15T03:54:39.188Z,115.47
2023-02-15T03:57:29.813Z,128.95
2023-02-15T04:00:18.465Z,116.28
2023-02-15T04:03:05.875Z,120.32
2023-02-15T04:05:34.407Z,101.95
2023-02-15T04:08:03.553Z,113.57
2023-02-15T04:10:50.347Z,112.78
2023-02-15T04:13:24.100Z,102.28
2023-02-15T04:16:04.621Z,108.53
2023-02-15T04:19:00.094Z,105.20
2023-02-15T04:21:49.838Z,112.53
2023-02-15T04:24:37.573Z,105.72
2023-02-15T04:27:06.877Z,107.72
2023-02-15T04:29:35.587Z,110.03
2023-02-15T04:32:04.010Z,130.32
2023-02-15T04:34:32.603Z,114.00
2023-02-15T04:37:00.951Z,120.72
2023-02-15T04:39:29.794Z,114.80
2023-02-15T04:41:58.173Z,112.95
2023-02-15T04:44:26.895Z,115.15
2023-02-15T04:46:56.096Z,114.38
2023-02-15T04:49:24.720Z,117.57
2023-02-15T04:51:53.054Z,98.72
2023-02-15T04:54:22.152Z,107.30
2023-02-15T04:56:50.735Z,115.28
2023-02-15T04:59:19.455Z,106.78
2023-02-15T05:01:47.940Z,107.82
2023-02-15T05:04:16.723Z,103.88
2023-02-15T05:06:45.222Z,107.57
2023-02-15T05:09:14.396Z,109.20
2023-02-15T05:11:42.627Z,114.80
2023-02-15T05:14:11.297Z,134.90
2023-02-15T05:16:39.828Z,114.03
2023-02-15T05:19:08.716Z,136.63
2023-02-15T05:21:37.151Z,139.30
2023-02-15T05:24:26.064Z,141.07
2023-02-15T05:27:12.875Z,133.85
2023-02-15T05:29:41.583Z,131.27
2023-02-15T05:32:10.022Z,129.30
2023-02-15T05:34:38.624Z,123.07
2023-02-15T05:37:08.649Z,115.63
2023-02-15T05:39:37.672Z,129.63
2023-02-15T05:42:05.933Z,118.03
2023-02-15T05:44:34.910Z,115.40
2023-02-15T05:47:04.252Z,113.18
2023-02-15T05:49:32.914Z,132.57
2023-02-15T05:52:01.575Z,122.18
2023-02-15T05:54:30.439Z,121.10
2023-02-15T05:56:58.863Z,121.07
2023-02-15T05:59:27.540Z,119.78
2023-02-15T06:01:55.831Z,121.80
2023-02-15T06:04:44.136Z,144.30
2023-02-15T06:07:13.291Z,133.48
2023-02-15T06:09:42.052Z,146.50
2023-02-15T06:12:10.365Z,141.88
2023-02-15T06:14:39.310Z,141.38
2023-02-15T06:17:07.806Z,150.00
2023-02-15T06:19:36.822Z,141.15
2023-02-15T06:22:05.112Z,159.57
2023-02-15T06:24:34.074Z,133.77
2023-02-15T06:27:02.333Z,130.70
2023-02-15T06:29:31.201Z,126.63
2023-02-15T06:31:59.635Z,133.43
2023-02-15T06:34:28.413Z,120.78
2023-02-15T06:36:57.210Z,124.60
2023-02-15T06:39:25.866Z,118.00
2023-02-15T06:41:54.368Z,133.10
2023-02-15T06:44:23.059Z,139.90
2023-02-15T06:46:51.517Z,138.15
2023-02-15T06:49:20.216Z,134.68
2023-02-15T06:51:48.549Z,132.30
2023-02-15T06:54:17.353Z,146.98
2023-02-15T06:56:45.851Z,151.55
2023-02-15T06:59:14.467Z,146.43
2023-02-15T07:01:42.892Z,153.88
2023-02-15T07:04:11.672Z,152.02
2023-02-15T07:06:40.064Z,149.35
2023-02-15T07:09:08.819Z,153.23
2023-02-15T07:12:15.300Z,152.00
2023-02-15T07:14:44.223Z,189.05
2023-02-15T07:17:33.002Z,182.95
2023-02-15T07:20:00.999Z,190.60
2023-02-15T07:22:29.820Z,191.50
2023-02-15T07:24:59.922Z,237.32
2023-02-15T07:27:28.299Z,247.70
2023-02-15T07:29:56.973Z,302.45
2023-02-15T07:32:27.923Z,250.85
2023-02-15T07:34:56.991Z,193.57
2023-02-15T07:37:25.767Z,161.18
2023-02-15T07:39:54.864Z,141.02
2023-02-15T07:42:23.289Z,126.88
2023-02-15T07:44:53.772Z,133.85
2023-02-15T07:47:22.025Z,142.18
2023-02-15T07:49:50.801Z,136.13
2023-02-15T07:52:19.206Z,138.73
2023-02-15T07:54:48.080Z,132.05
2023-02-15T07:57:16.526Z,132.00
2023-02-15T07:59:45.334Z,126.07
2023-02-15T08:02:13.854Z,114.60
2023-02-15T08:04:42.956Z,104.85
2023-02-15T08:07:11.287Z,108.05
2023-02-15T08:09:39.856Z,103.15
2023-02-15T08:12:08.076Z,91.07
2023-02-15T08:14:37.163Z,87.80
2023-02-15T08:17:06.153Z,85.40
2023-02-15T08:19:35.976Z,79.78
2023-02-15T08:22:08.981Z,73.82
2023-02-15T08:24:38.552Z,78.30
2023-02-15T08:27:10.217Z,82.60
2023-02-15T08:29:40.386Z,83.35
2023-02-15T08:32:11.537Z,80.88
2023-02-15T08:34:42.480Z,76.70
2023-02-15T08:37:11.264Z,89.78
2023-02-15T08:39:43.964Z,83.40
2023-02-15T08:42:21.949Z,76.63
2023-02-15T08:44:52.742Z,76.32
2023-02-15T08:47:21.482Z,69.90
2023-02-15T08:49:50.349Z,67.53
2023-02-15T08:52:19.060Z,73.57
2023-02-15T08:54:47.689Z,75.70
2023-02-15T08:57:16.121Z,74.25
2023-02-15T08:59:45.319Z,77.35
2023-02-15T09:02:13.683Z,76.68
2023-02-15T09:04:42.417Z,61.67
2023-02-15T09:07:10.987Z,61.42
2023-02-15T09:09:39.762Z,52.63
2023-02-15T09:12:08.462Z,49.30
2023-02-15T09:14:37.160Z,56.38
2023-02-15T09:17:05.529Z,48.45
2023-02-15T09:22:16.957Z,44.72
2023-02-15T09:24:45.695Z,49.50
2023-02-15T09:27:13.936Z,44.83
2023-02-15T09:29:42.781Z,49.22
2023-02-15T09:32:15.782Z,46.47
2023-02-15T09:34:44.626Z,43.83
2023-02-15T09:37:13.100Z,47.53
2023-02-15T09:39:44.477Z,44.90
2023-02-15T09:42:18.632Z,43.30
2023-02-15T09:44:53.517Z,41.45
2023-02-15T09:47:31.652Z,48.90
2023-02-15T09:50:18.488Z,42.30
2023-02-15T09:53:02.509Z,45.00
2023-02-15T09:56:03.481Z,48.05
2023-02-15T09:58:54.858Z,45.67
2023-02-15T10:01:48.313Z,44.63
2023-02-15T10:04:28.154Z,47.15
2023-02-15T10:07:15.191Z,47.42
2023-02-15T10:09:58.763Z,48.78
2023-02-15T10:12:34.980Z,45.95
2023-02-15T10:15:12.728Z,45.97
2023-02-15T10:18:10.961Z,49.28
2023-02-15T10:24:41.348Z,46.90
2023-02-15T10:27:36.277Z,47.95
2023-02-15T10:30:51.709Z,54.97
2023-02-15T10:33:42.698Z,47.78
2023-02-15T10:36:29.559Z,50.72
2023-02-15T10:39:03.479Z,48.78
2023-02-15T10:41:45.752Z,49.50
2023-02-15T10:44:28.965Z,52.63
2023-02-15T10:47:26.094Z,52.03
2023-02-15T10:50:32.155Z,50.20
2023-02-15T10:53:43.800Z,51.03
2023-02-15T10:56:39.471Z,49.40
2023-02-15T10:59:26.600Z,50.65
2023-02-15T11:02:03.117Z,55.25
2023-02-15T11:05:33.637Z,52.20
2023-02-15T11:10:45.812Z,53.17
2023-02-15T11:13:41.095Z,50.47
2023-02-15T11:16:22.217Z,49.88
2023-02-15T11:19:02.158Z,51.88
2023-02-15T11:24:47.071Z,56.65
2023-02-15T11:27:29.773Z,58.47
2023-02-15T11:30:11.814Z,55.22
2023-02-15T11:32:48.127Z,53.17
2023-02-15T11:35:24.123Z,53.40
2023-02-15T11:38:19.085Z,50.67
2023-02-15T11:41:12.800Z,50.72
2023-02-15T11:43:55.536Z,54.95
2023-02-15T11:46:24.858Z,54.28
2023-02-15T11:48:53.619Z,55.05
2023-02-15T11:51:24.157Z,56.45
2023-02-15T11:53:54.153Z,51.10
2023-02-15T11:56:25.978Z,52.78
2023-02-15T11:59:08.351Z,52.30
2023-02-15T12:01:39.414Z,52.90
2023-02-15T12:04:34.198Z,52.42
2023-02-15T12:07:09.118Z,49.85
2023-02-15T12:10:05.363Z,53.08
2023-02-15T12:12:37.260Z,53.50
2023-02-15T12:15:09.093Z,48.88
2023-02-15T12:20:37.952Z,55.15
2023-02-15T12:23:16.689Z,53.05
2023-02-15T12:25:58.989Z,51.92
2023-02-15T12:28:42.938Z,52.42
2023-02-15T12:31:24.930Z,51.30
2023-02-15T12:33:56.081Z,59.60
2023-02-15T12:36:34.208Z,64.45
2023-02-15T12:39:07.176Z,60.13
2023-02-15T12:41:38.691Z,56.97
2023-02-15T12:44:24.674Z,61.27
2023-02-15T12:47:05.877Z,58.40
2023-02-15T12:49:38.833Z,57.50
2023-02-15T12:52:25.575Z,56.75
2023-02-15T12:54:54.068Z,64.68
2023-02-15T12:57:26.350Z,61.78
2023-02-15T13:00:19.482Z,70.13
2023-02-15T13:02:53.895Z,68.03
2023-02-15T13:05:44.201Z,69.75
2023-02-15T13:08:17.940Z,63.97
2023-02-15T13:11:11.955Z,64.80
2023-02-15T13:13:57.267Z,66.07
2023-02-15T13:16:36.596Z,65.60
2023-02-15T13:19:13.675Z,59.58
2023-02-15T13:21:46.311Z,56.42
2023-02-15T13:24:28.890Z,62.30
2023-02-15T13:27:14.046Z,61.08
2023-02-15T13:29:47.875Z,59.38
2023-02-15T13:32:27.759Z,60.75
2023-02-15T13:35:00.571Z,59.25
2023-02-15T13:37:38.174Z,63.08
2023-02-15T13:40:28.667Z,61.60
2023-02-15T13:43:18.923Z,62.85
2023-02-15T13:46:18.931Z,65.47
2023-02-15T13:49:12.736Z,64.07
2023-02-15T13:51:50.739Z,58.88
2023-02-15T13:54:37.255Z,60.30
2023-02-15T13:57:37.200Z,63.50
2023-02-15T14:00:18.243Z,64.10
2023-02-15T14:03:02.626Z,63.30
2023-02-15T14:05:48.409Z,66.97
2023-02-15T14:08:30.680Z,67.15
2023-02-15T14:11:33.803Z,67.50
2023-02-15T14:14:12.041Z,64.97
2023-02-15T14:17:07.531Z,70.65
2023-02-15T14:19:51.330Z,66.50
2023-02-15T14:22:42.779Z,67.80
2023-02-15T14:25:36.829Z,84.35
2023-02-15T14:28:23.235Z,70.90
2023-02-15T14:30:52.836Z,73.25
2023-02-15T14:33:43.944Z,72.13
2023-02-15T14:36:19.849Z,73.23
2023-02-15T14:39:35.475Z,67.88
2023-02-15T14:42:19.986Z,72.20
2023-02-15T14:45:03.276Z,73.22
2023-02-15T14:47:43.422Z,71.47
2023-02-15T14:50:43.325Z,73.53
2023-02-15T14:53:16.162Z,72.70
2023-02-15T14:55:44.658Z,69.15
2023-02-15T14:58:15.363Z,68.55
2023-02-15T15:00:44.722Z,71.35
2023-02-15T15:03:26.201Z,73.28
2023-02-15T15:06:00.441Z,75.43
2023-02-15T15:08:35.569Z,72.97
2023-02-15T15:11:41.971Z,66.07
2023-02-15T15:14:34.661Z,71.68
2023-02-15T15:17:04.949Z,71.00
2023-02-15T15:19:51.759Z,69.53
2023-02-15T15:22:23.250Z,83.07
2023-02-15T15:25:03.216Z,72.88
2023-02-15T15:27:46.832Z,74.85
2023-02-15T15:30:15.703Z,70.35
2023-02-15T15:33:24.185Z,69.15
2023-02-15T15:36:36.224Z,68.30
2023-02-15T15:39:34.340Z,68.90
2023-02-15T15:42:32.503Z,65.32
2023-02-15T15:45:23.492Z,68.10
2023-02-15T15:48:41.498Z,69.80
2023-02-15T15:51:32.907Z,75.30
2023-02-15T15:54:03.861Z,70.22
2023-02-15T16:00:50.910Z,85.60
2023-02-15T16:03:29.636Z,108.93
2023-02-15T16:06:02.072Z,73.13
2023-02-15T16:08:37.779Z,90.13
2023-02-15T16:11:26.905Z,80.78
2023-02-15T16:13:56.110Z,78.57
2023-02-15T16:16:34.486Z,90.70
2023-02-15T16:19:06.823Z,83.88
2023-02-15T16:21:37.714Z,82.47
2023-02-15T16:24:22.683Z,74.65
2023-02-15T16:27:19.379Z,83.28
2023-02-15T16:29:49.309Z,76.57
2023-02-15T16:32:23.581Z,77.47
2023-02-15T16:35:01.411Z,84.05
2023-02-15T16:37:34.594Z,82.32
2023-02-15T16:40:04.659Z,76.03
2023-02-15T16:42:33.105Z,81.30
2023-02-15T16:45:08.935Z,72.97
2023-02-15T16:47:46.631Z,76.75
2023-02-15T16:50:37.400Z,77.50
2023-02-15T16:56:50.916Z,79.05
2023-02-15T16:59:34.643Z,81.32
2023-02-15T17:02:53.082Z,80.75
2023-02-15T17:05:21.048Z,80.47
2023-02-15T17:08:19.228Z,77.90
2023-02-15T17:11:06.319Z,81.80
2023-02-15T17:13:34.838Z,120.90
2023-02-15T17:16:55.591Z,105.25
2023-02-15T17:19:27.887Z,91.38
2023-02-15T17:21:59.847Z,91.10
2023-02-15T17:24:36.731Z,104.50
2023-02-15T17:27:28.824Z,95.68
2023-02-15T17:30:03.716Z,97.53
2023-02-15T17:32:35.608Z,107.13
2023-02-15T17:35:05.077Z,100.80
2023-02-15T17:37:33.721Z,123.57
2023-02-15T17:40:06.593Z,113.25
2023-02-15T17:42:35.219Z,104.75
2023-02-15T17:45:03.836Z,102.72
2023-02-15T17:47:35.414Z,105.18
2023-02-15T17:50:06.110Z,104.60
2023-02-15T17:52:37.118Z,105.93
2023-02-15T17:55:33.437Z,117.93
2023-02-15T17:58:05.353Z,130.70
2023-02-15T18:00:57.741Z,136.98
2023-02-15T18:03:57.886Z,128.25
2023-02-15T18:06:45.426Z,113.90
2023-02-15T18:09:35.281Z,139.05
2023-02-15T18:12:30.723Z,161.35
2023-02-15T18:15:00.739Z,170.55
2023-02-15T18:17:34.284Z,146.10
2023-02-15T18:20:21.394Z,166.10
2023-02-15T18:22:50.206Z,151.25
2023-02-15T18:25:26.860Z,148.65
2023-02-15T18:27:56.432Z,156.77
2023-02-15T18:30:28.639Z,142.43
2023-02-15T18:32:58.964Z,128.13
2023-02-15T18:35:31.843Z,122.32
2023-02-15T18:38:01.578Z,112.63
2023-02-15T18:40:30.818Z,107.43
2023-02-15T18:42:59.362Z,117.78
2023-02-15T18:45:33.059Z,119.40
2023-02-15T18:48:01.843Z,135.52
2023-02-15T18:50:34.478Z,148.75
2023-02-15T18:53:04.970Z,155.00
2023-02-15T18:55:35.551Z,173.88
2023-02-15T18:58:04.074Z,202.15
2023-02-15T19:00:35.095Z,196.60
2023-02-15T19:03:11.964Z,196.90
2023-02-15T19:05:46.453Z,239.05
2023-02-15T19:08:48.950Z,229.65
2023-02-15T19:11:23.525Z,233.60
2023-02-15T19:13:52.793Z,246.55
2023-02-15T19:16:33.606Z,267.55
2023-02-15T19:19:02.632Z,265.00
2023-02-15T19:21:57.113Z,271.38
2023-02-15T19:24:45.931Z,251.73
2023-02-15T19:27:20.637Z,224.27
2023-02-15T19:29:49.887Z,231.15
2023-02-15T19:32:18.641Z,234.63
2023-02-15T19:34:51.397Z,233.45
2023-02-15T19:37:42.580Z,239.15
2023-02-15T19:40:37.741Z,239.98
2023-02-15T19:43:26.203Z,266.45
2023-02-15T19:45:54.952Z,292.20
2023-02-15T19:48:24.033Z,291.10
2023-02-15T19:50:57.205Z,291.75
2023-02-15T19:53:28.090Z,292.02
2023-02-15T19:55:56.709Z,293.15
2023-02-15T19:58:25.571Z,313.88
2023-02-15T20:00:54.462Z,289.95
2023-02-15T20:03:23.228Z,300.20
2023-02-15T20:05:51.676Z,316.98
2023-02-15T20:08:23.201Z,326.92
2023-02-15T20:10:51.942Z,325.90
2023-02-15T20:13:21.707Z,352.95
2023-02-15T20:15:51.571Z,350.02
2023-02-15T20:18:22.579Z,378.60
2023-02-15T20:21:02.168Z,390.08
2023-02-15T20:23:35.939Z,353.73
2023-02-15T20:26:19.290Z,341.77
2023-02-15T20:28:49.867Z,332.27
2023-02-15T20:31:22.372Z,340.88
2023-02-15T20:33:52.171Z,301.45
2023-02-15T20:36:23.211Z,299.10
2023-02-15T20:38:52.222Z,291.50
2023-02-15T20:41:37.711Z,283.00
2023-02-15T20:44:23.820Z,287.92
2023-02-15T20:47:25.146Z,247.95
2023-02-15T20:50:00.467Z,222.98
2023-02-15T20:52:55.215Z,230.57
2023-02-15T20:55:44.803Z,215.75
2023-02-15T21:01:42.552Z,199.23
2023-02-15T21:04:22.412Z,172.27
2023-02-15T21:06:56.474Z,167.25
2023-02-15T21:09:31.010Z,186.93
2023-02-15T21:12:05.790Z,155.02
2023-02-15T21:14:34.961Z,165.50
2023-02-15T21:17:04.606Z,164.43
2023-02-15T21:19:40.990Z,184.10
2023-02-15T21:28:58.696Z,250.77
2023-02-15T21:31:29.126Z,262.95
2023-02-15T21:33:58.504Z,257.67
2023-02-15T21:36:28.042Z,245.23
2023-02-15T21:38:57.095Z,243.95
2023-02-15T21:41:46.778Z,257.95
2023-02-15T21:44:59.861Z,275.63
2023-02-15T21:50:48.285Z,220.30
2023-02-15T21:53:57.195Z,220.05
2023-02-15T21:56:25.964Z,191.95
2023-02-15T21:58:54.279Z,198.95
2023-02-15T22:01:25.781Z,215.68
2023-02-15T22:03:56.195Z,207.40
2023-02-15T22:07:13.116Z,192.88
2023-02-15T22:09:41.402Z,176.32
2023-02-15T22:12:16.812Z,168.85
2023-02-15T22:14:50.636Z,181.05
2023-02-15T22:17:25.082Z,178.73
2023-02-15T22:19:53.476Z,214.05
2023-02-15T22:22:22.260Z,176.55
2023-02-15T22:24:50.691Z,166.43
2023-02-15T22:30:55.283Z,177.65
2023-02-15T22:33:27.382Z,172.93
2023-02-15T22:35:55.831Z,164.02
2023-02-15T22:38:25.428Z,176.05
2023-02-15T22:40:56.688Z,176.45
2023-02-15T22:43:36.565Z,178.90
2023-02-15T22:46:08.954Z,172.27
2023-02-15T22:48:39.982Z,168.40
2023-02-15T22:51:12.783Z,171.50
2023-02-15T22:53:41.973Z,168.05
2023-02-15T22:56:31.174Z,175.18
2023-02-15T22:59:04.965Z,180.57
2023-02-15T23:01:36.381Z,204.88
2023-02-15T23:04:05.357Z,240.27
2023-02-15T23:06:34.685Z,231.07
2023-02-15T23:09:03.683Z,223.57
2023-02-15T23:11:32.187Z,216.55
2023-02-15T23:14:03.108Z,234.50
2023-02-15T23:16:32.094Z,227.52
2023-02-15T23:19:01.236Z,201.80
2023-02-15T23:21:32.714Z,193.38
2023-02-15T23:24:42.488Z,168.77
2023-02-15T23:27:34.985Z,154.20
2023-02-15T23:30:14.308Z,142.50
2023-02-15T23:32:42.903Z,147.98
2023-02-15T23:35:16.589Z,153.75
2023-02-15T23:37:45.341Z,145.40
2023-02-15T23:40:38.900Z,137.35
2023-02-15T23:43:16.213Z,141.77
2023-02-15T23:45:45.297Z,146.75
2023-02-15T23:48:31.966Z,166.77
2023-02-15T23:51:01.580Z,167.40
2023-02-15T23:53:30.489Z,163.13
2023-02-15T23:55:59.671Z,164.02
2023-02-15T23:58:37.419Z,164.75
